Time;durP1;ratioP1;P1;durP2;ratioP2;P2;SDS_P1;SDS_P2;PMS_P1;PMS_P2;Temp;Humidity;BMP_temperature;BMP_pressure;BME280_temperature;BME280_humidity;BME280_pressure;Samples;Min_cycle;Max_cycle;Signal;HPM_P1;HPM_P2
2022/10/16 00:01:40;;;;;;;0.00;0.00;;;15.80;99.90;;;;;;5032852;28;20245;-75
2022/10/16 00:04:09;;;;;;;0.00;0.00;;;15.80;99.90;;;;;;5029778;28;20293;-75
2022/10/16 00:06:37;;;;;;;0.00;0.00;;;15.90;99.90;;;;;;5030374;28;20697;-75
2022/10/16 00:09:07;;;;;;;0.00;0.00;;;15.80;99.90;;;;;;5030030;28;20191;-75
2022/10/16 00:11:38;;;;;;;0.00;0.00;;;15.90;99.90;;;;;;5025841;28;20192;-75
2022/10/16 00:14:10;;;;;;;0.00;0.00;;;15.90;99.90;;;;;;5032334;28;20601;-74
2022/10/16 00:16:39;;;;;;;0.00;0.00;;;15.90;99.90;;;;;;5032017;28;20249;-76
2022/10/16 00:19:07;;;;;;;0.00;0.00;;;15.90;99.90;;;;;;5024158;28;20796;-76
2022/10/16 00:21:35;;;;;;;0.00;0.00;;;15.90;99.90;;;;;;5026005;28;20199;-76
2022/10/16 00:24:08;;;;;;;0.00;0.00;;;15.90;99.90;;;;;;5031037;28;20253;-75
2022/10/16 00:26:37;;;;;;;0.00;0.00;;;15.90;99.90;;;;;;5026501;28;20674;-75
2022/10/16 00:29:06;;;;;;;0.00;0.00;;;15.90;99.90;;;;;;5030467;28;20670;-76
2022/10/16 00:31:34;;;;;;;0.00;0.00;;;15.90;99.90;;;;;;5031353;28;20207;-76
2022/10/16 00:34:02;;;;;;;0.00;0.00;;;15.90;99.90;;;;;;5032374;28;20195;-75
2022/10/16 00:36:30;;;;;;;0.00;0.00;;;15.90;99.90;;;;;;5031616;28;20230;-74
2022/10/16 00:39:00;;;;;;;0.00;0.00;;;15.90;99.90;;;;;;5026799;28;20253;-75
2022/10/16 00:41:34;;;;;;;0.00;0.00;;;15.90;99.90;;;;;;5029954;28;20415;-76
2022/10/16 00:44:24;;;;;;;0.00;0.00;;;15.90;99.90;;;;;;5027415;28;20281;-76
2022/10/16 00:46:53;;;;;;;0.00;0.00;;;15.90;99.90;;;;;;5022390;28;20274;-76
2022/10/16 00:49:21;;;;;;;0.00;0.00;;;15.90;99.90;;;;;;5029880;28;20736;-75
2022/10/16 00:51:53;;;;;;;0.00;0.00;;;15.90;99.90;;;;;;5032430;28;20203;-75
2022/10/16 00:54:23;;;;;;;0.00;0.00;;;15.80;99.90;;;;;;5030290;28;20654;-76
2022/10/16 00:56:51;;;;;;;0.00;0.00;;;15.80;99.90;;;;;;5030257;28;20230;-75
2022/10/16 00:59:21;;;;;;;0.00;0.00;;;15.80;99.90;;;;;;5028883;28;20207;-76
2022/10/16 01:01:49;;;;;;;0.00;0.00;;;15.70;99.90;;;;;;5036783;28;20207;-76
2022/10/16 01:04:19;;;;;;;0.00;0.00;;;15.80;99.90;;;;;;5031590;28;20202;-75
2022/10/16 01:06:57;;;;;;;0.00;0.00;;;15.70;99.90;;;;;;5029055;28;20215;-76
2022/10/16 01:09:32;;;;;;;0.00;0.00;;;15.70;99.90;;;;;;5031133;28;20223;-76
2022/10/16 01:12:10;;;;;;;0.00;0.00;;;15.80;99.90;;;;;;5026592;28;20301;-77
2022/10/16 01:14:45;;;;;;;0.00;0.00;;;15.80;99.90;;;;;;5025918;28;20203;-76
2022/10/16 01:17:16;;;;;;;0.00;0.00;;;15.80;99.90;;;;;;5022189;28;20280;-77
2022/10/16 01:20:09;;;;;;;0.00;0.00;;;15.80;99.90;;;;;;5023634;28;20215;-78
2022/10/16 01:22:45;;;;;;;0.00;0.00;;;15.80;99.90;;;;;;5030702;28;20218;-77
2022/10/16 01:25:21;;;;;;;0.00;0.00;;;15.90;99.90;;;;;;5032032;28;20196;-75
2022/10/16 01:27:51;;;;;;;0.00;0.00;;;15.90;99.90;;;;;;5033845;28;20222;-76
2022/10/16 01:30:24;;;;;;;0.00;0.00;;;15.90;99.90;;;;;;5029274;28;20199;-77
2022/10/16 01:32:56;;;;;;;0.00;0.00;;;15.90;99.90;;;;;;5037543;28;20249;-75
2022/10/16 01:35:27;;;;;;;0.00;0.00;;;15.90;99.90;;;;;;5021412;28;20201;-76
2022/10/16 01:38:00;;;;;;;0.00;0.00;;;15.90;99.90;;;;;;5022334;28;20231;-75
2022/10/16 01:40:30;;;;;;;0.00;0.00;;;15.90;99.90;;;;;;5028000;28;20285;-75
2022/10/16 01:43:03;;;;;;;0.00;0.00;;;16.00;99.90;;;;;;5032519;28;20195;-75
2022/10/16 01:45:33;;;;;;;0.00;0.00;;;15.90;99.90;;;;;;5031921;28;20200;-77
2022/10/16 01:48:03;;;;;;;0.00;0.00;;;15.90;99.90;;;;;;5034390;28;20703;-75
2022/10/16 01:50:33;;;;;;;0.00;0.00;;;15.90;99.90;;;;;;5032413;28;20199;-77
2022/10/16 01:53:04;;;;;;;0.00;0.00;;;15.90;99.90;;;;;;5027179;28;20606;-76
2022/10/16 01:55:36;;;;;;;0.00;0.00;;;15.90;99.90;;;;;;5034404;28;20234;-76
2022/10/16 01:58:09;;;;;;;0.00;0.00;;;15.90;99.90;;;;;;5029478;28;20226;-76
2022/10/16 02:00:40;;;;;;;0.00;0.00;;;15.90;99.90;;;;;;5030997;28;20250;-75
2022/10/16 02:03:09;;;;;;;0.00;0.00;;;15.90;99.90;;;;;;5023424;28;20203;-78
2022/10/16 02:05:42;;;;;;;0.00;0.00;;;15.90;99.90;;;;;;5033663;28;20191;-75
2022/10/16 02:08:10;;;;;;;0.00;0.00;;;15.80;99.90;;;;;;5032642;28;20225;-76
2022/10/16 02:10:38;;;;;;;0.00;0.00;;;15.80;99.90;;;;;;5032955;28;20218;-75
2022/10/16 02:13:11;;;;;;;0.00;0.00;;;15.80;99.90;;;;;;5032300;28;20605;-76
2022/10/16 02:15:39;;;;;;;0.00;0.00;;;15.80;99.90;;;;;;5032026;28;20628;-77
2022/10/16 02:18:08;;;;;;;0.00;0.00;;;15.80;99.90;;;;;;5031897;28;20226;-76
2022/10/16 02:20:41;;;;;;;0.00;0.00;;;15.80;99.90;;;;;;5032641;28;20757;-75
2022/10/16 02:23:14;;;;;;;0.00;0.00;;;15.80;99.90;;;;;;5026106;28;20203;-76
2022/10/16 02:25:48;;;;;;;0.00;0.00;;;15.80;99.90;;;;;;5031376;28;20207;-76
2022/10/16 02:28:20;;;;;;;0.00;0.00;;;15.80;99.90;;;;;;5029275;28;20266;-76
2022/10/16 02:30:52;;;;;;;0.00;0.00;;;15.70;99.90;;;;;;5032728;28;20199;-76
2022/10/16 02:33:22;;;;;;;0.00;0.00;;;15.70;99.90;;;;;;5033753;28;20191;-74
2022/10/16 02:35:51;;;;;;;0.00;0.00;;;15.70;99.90;;;;;;5031863;28;20266;-76
2022/10/16 02:38:21;;;;;;;0.00;0.00;;;15.70;99.90;;;;;;5030571;28;20253;-78
2022/10/16 02:40:49;;;;;;;0.00;0.00;;;15.70;99.90;;;;;;5030282;28;20215;-76
2022/10/16 02:43:19;;;;;;;0.00;0.00;;;15.70;99.90;;;;;;5028365;28;20195;-75
2022/10/16 02:45:47;;;;;;;0.00;0.00;;;15.70;99.90;;;;;;5028238;28;20203;-75
2022/10/16 02:48:15;;;;;;;0.00;0.00;;;15.70;99.90;;;;;;5035516;28;20215;-75
2022/10/16 02:50:42;;;;;;;0.00;0.00;;;15.70;99.90;;;;;;5033632;28;20261;-75
2022/10/16 02:53:10;;;;;;;0.00;0.00;;;15.70;99.90;;;;;;5028109;28;20196;-75
2022/10/16 02:55:38;;;;;;;0.00;0.00;;;15.70;99.90;;;;;;5028887;28;20265;-75
2022/10/16 02:58:06;;;;;;;0.00;0.00;;;15.70;99.90;;;;;;5023566;28;20864;-75
2022/10/16 03:00:35;;;;;;;0.00;0.00;;;15.70;99.90;;;;;;5028537;28;20215;-77
2022/10/16 03:03:03;;;;;;;0.00;0.00;;;15.70;99.90;;;;;;5033108;28;20203;-75
2022/10/16 03:05:31;;;;;;;0.00;0.00;;;15.70;99.90;;;;;;5032344;28;20235;-75
2022/10/16 03:08:00;;;;;;;0.00;0.00;;;15.70;99.90;;;;;;5030886;28;20223;-75
2022/10/16 03:10:28;;;;;;;0.00;0.00;;;15.70;99.90;;;;;;5021892;28;20207;-75
2022/10/16 03:12:56;;;;;;;0.00;0.00;;;15.70;99.90;;;;;;5029658;28;20192;-75
2022/10/16 03:15:24;;;;;;;0.00;0.00;;;15.70;99.90;;;;;;5031098;28;20206;-75
2022/10/16 03:17:53;;;;;;;0.00;0.00;;;15.70;99.90;;;;;;5030446;28;20305;-75
2022/10/16 03:20:21;;;;;;;0.00;0.00;;;15.60;99.90;;;;;;5021699;28;20204;-76
2022/10/16 03:22:49;;;;;;;0.00;0.00;;;15.60;99.90;;;;;;5013187;28;20743;-77
2022/10/16 03:25:17;;;;;;;0.00;0.00;;;15.50;99.90;;;;;;5028773;28;20234;-76
2022/10/16 03:27:45;;;;;;;0.00;0.00;;;15.50;99.90;;;;;;5027887;28;20219;-75
2022/10/16 03:30:13;;;;;;;0.00;0.00;;;15.40;99.90;;;;;;5030954;28;20201;-76
2022/10/16 03:32:41;;;;;;;0.00;0.00;;;15.40;99.90;;;;;;5029497;28;20195;-75
2022/10/16 03:35:10;;;;;;;0.00;0.00;;;15.40;99.90;;;;;;5031415;28;20206;-76
2022/10/16 03:37:38;;;;;;;0.00;0.00;;;15.40;99.90;;;;;;5029161;28;20258;-75
2022/10/16 03:40:07;;;;;;;0.00;0.00;;;15.40;99.90;;;;;;5030676;28;20230;-74
2022/10/16 03:42:35;;;;;;;0.00;0.00;;;15.40;99.90;;;;;;5027590;28;20701;-76
2022/10/16 03:45:03;;;;;;;0.00;0.00;;;15.40;99.90;;;;;;5032098;28;20591;-75
2022/10/16 03:47:32;;;;;;;0.00;0.00;;;15.40;99.90;;;;;;5028435;28;20227;-76
2022/10/16 03:50:00;;;;;;;0.00;0.00;;;15.40;99.90;;;;;;5032216;28;20246;-75
2022/10/16 03:52:30;;;;;;;0.00;0.00;;;15.40;99.90;;;;;;5031939;28;20269;-75
2022/10/16 03:54:58;;;;;;;0.00;0.00;;;15.40;99.90;;;;;;5018232;28;20195;-76
2022/10/16 03:57:26;;;;;;;0.00;0.00;;;15.40;99.90;;;;;;5021509;28;20227;-76
2022/10/16 03:59:54;;;;;;;0.00;0.00;;;15.40;99.90;;;;;;5022400;28;20237;-75
2022/10/16 04:02:22;;;;;;;0.00;0.00;;;15.40;99.90;;;;;;5028731;28;20215;-75
2022/10/16 04:04:50;;;;;;;0.00;0.00;;;15.40;99.90;;;;;;5030511;28;20257;-75
2022/10/16 04:07:18;;;;;;;0.00;0.00;;;15.40;99.90;;;;;;5028663;28;20227;-76
2022/10/16 04:09:47;;;;;;;0.00;0.00;;;15.40;99.90;;;;;;5022992;28;20257;-77
2022/10/16 04:12:15;;;;;;;0.00;0.00;;;15.50;99.90;;;;;;5029810;28;20203;-74
2022/10/16 04:14:43;;;;;;;0.00;0.00;;;15.50;99.90;;;;;;5018755;28;20202;-75
2022/10/16 04:17:11;;;;;;;0.00;0.00;;;15.50;99.90;;;;;;5024256;28;20226;-74
2022/10/16 04:19:39;;;;;;;0.00;0.00;;;15.50;99.90;;;;;;5025693;28;20199;-75
2022/10/16 04:22:06;;;;;;;0.00;0.00;;;15.50;99.90;;;;;;5031379;28;20254;-75
2022/10/16 04:24:34;;;;;;;0.00;0.00;;;15.50;99.90;;;;;;5027452;28;20206;-75
2022/10/16 04:27:04;;;;;;;0.00;0.00;;;15.50;99.90;;;;;;5028804;28;20660;-75
2022/10/16 04:29:32;;;;;;;0.00;0.00;;;15.40;99.90;;;;;;5026214;28;20202;-74
2022/10/16 04:32:00;;;;;;;0.00;0.00;;;15.50;99.90;;;;;;5031395;28;20199;-74
2022/10/16 04:34:28;;;;;;;0.00;0.00;;;15.50;99.90;;;;;;5030625;28;20195;-75
2022/10/16 04:36:55;;;;;;;0.00;0.00;;;15.50;99.90;;;;;;5024289;28;20337;-75
2022/10/16 04:39:23;;;;;;;0.00;0.00;;;15.50;99.90;;;;;;5019398;28;20196;-75
2022/10/16 04:41:51;;;;;;;0.00;0.00;;;15.50;99.90;;;;;;5024133;28;20757;-75
2022/10/16 04:44:20;;;;;;;0.00;0.00;;;15.50;99.90;;;;;;5027082;28;20202;-75
2022/10/16 04:46:50;;;;;;;0.00;0.00;;;15.50;99.90;;;;;;5018278;28;20705;-74
2022/10/16 04:49:18;;;;;;;0.00;0.00;;;15.50;99.90;;;;;;5030803;28;20252;-74
2022/10/16 04:51:46;;;;;;;0.00;0.00;;;15.50;99.90;;;;;;5031465;28;20190;-75
2022/10/16 04:54:14;;;;;;;0.00;0.00;;;15.50;99.90;;;;;;5032692;28;20262;-74
2022/10/16 04:56:46;;;;;;;0.00;0.00;;;15.40;99.90;;;;;;5025806;28;20304;-77
2022/10/16 04:59:15;;;;;;;0.00;0.00;;;15.40;99.90;;;;;;5075416;22;20237;-75
2022/10/16 05:01:44;;;;;;;0.00;0.00;;;15.40;99.90;;;;;;5056450;28;20210;-75
2022/10/16 05:04:14;;;;;;;0.00;0.00;;;15.30;99.90;;;;;;5055493;28;20605;-75
2022/10/16 05:06:43;;;;;;;0.00;0.00;;;15.30;99.90;;;;;;5056062;28;20263;-75
2022/10/16 05:09:11;;;;;;;0.00;0.00;;;15.30;99.90;;;;;;5035047;28;20756;-75
2022/10/16 05:11:39;;;;;;;0.00;0.00;;;15.30;99.90;;;;;;5031964;28;20207;-77
2022/10/16 05:14:06;;;;;;;0.00;0.00;;;15.30;99.90;;;;;;5031138;28;20234;-75
2022/10/16 05:16:34;;;;;;;0.00;0.00;;;15.30;99.90;;;;;;5034452;28;20246;-76
2022/10/16 05:19:04;;;;;;;0.00;0.00;;;15.30;99.90;;;;;;5034482;28;20223;-75
2022/10/16 05:21:52;;;;;;;0.00;0.00;;;15.30;99.90;;;;;;5024204;28;20211;-74
2022/10/16 05:24:20;;;;;;;0.00;0.00;;;15.30;99.90;;;;;;5033820;28;20203;-73
2022/10/16 05:26:48;;;;;;;0.00;0.00;;;15.30;99.90;;;;;;5034052;28;20870;-73
2022/10/16 05:29:15;;;;;;;0.00;0.00;;;15.40;99.90;;;;;;5027389;28;20276;-74
2022/10/16 05:31:44;;;;;;;0.00;0.00;;;15.30;99.90;;;;;;5034142;28;20209;-73
2022/10/16 05:34:13;;;;;;;0.00;0.00;;;15.30;99.90;;;;;;5035907;28;20198;-73
2022/10/16 05:36:41;;;;;;;0.00;0.00;;;15.30;99.90;;;;;;5028819;28;20196;-75
2022/10/16 05:39:09;;;;;;;0.00;0.00;;;15.30;99.90;;;;;;5026301;28;20207;-75
2022/10/16 05:41:37;;;;;;;0.00;0.00;;;15.30;99.90;;;;;;5035041;28;20195;-76
2022/10/16 05:44:06;;;;;;;0.00;0.00;;;15.30;99.90;;;;;;5034980;28;20225;-74
2022/10/16 05:46:34;;;;;;;0.00;0.00;;;15.40;99.90;;;;;;5035658;28;20195;-75
2022/10/16 05:49:02;;;;;;;0.00;0.00;;;15.40;99.90;;;;;;5035928;28;20218;-75
2022/10/16 05:51:31;;;;;;;0.00;0.00;;;15.40;99.90;;;;;;5036900;28;20184;-75
2022/10/16 05:53:59;;;;;;;0.00;0.00;;;15.50;99.90;;;;;;5038069;28;20740;-75
2022/10/16 05:56:27;;;;;;;0.00;0.00;;;15.50;99.90;;;;;;5029176;28;20225;-75
2022/10/16 05:58:55;;;;;;;0.00;0.00;;;15.50;99.90;;;;;;5033652;28;20300;-75
2022/10/16 06:01:24;;;;;;;0.00;0.00;;;15.50;99.90;;;;;;5029684;28;20207;-75
2022/10/16 06:03:53;;;;;;;0.00;0.00;;;15.60;99.90;;;;;;5038563;28;20712;-76
2022/10/16 06:06:23;;;;;;;0.00;0.00;;;15.60;99.90;;;;;;5024707;28;20231;-75
2022/10/16 06:08:54;;;;;;;0.00;0.00;;;15.60;99.90;;;;;;5026381;28;20578;-75
2022/10/16 06:11:23;;;;;;;0.00;0.00;;;15.70;99.90;;;;;;5034182;28;20848;-75
2022/10/16 06:13:52;;;;;;;0.00;0.00;;;15.70;99.90;;;;;;5027049;28;20233;-76
2022/10/16 06:16:20;;;;;;;0.00;0.00;;;15.70;99.90;;;;;;5031442;28;20199;-76
2022/10/16 06:18:48;;;;;;;0.00;0.00;;;15.70;99.90;;;;;;5028530;28;20589;-76
2022/10/16 06:21:19;;;;;;;0.00;0.00;;;15.70;99.90;;;;;;5026508;28;20203;-76
2022/10/16 06:23:49;;;;;;;0.00;0.00;;;15.80;99.90;;;;;;5020927;28;20223;-75
2022/10/16 06:26:19;;;;;;;0.10;0.10;;;15.90;99.90;;;;;;5023175;28;20341;-75
2022/10/16 06:28:48;;;;;;;0.00;0.00;;;15.90;99.90;;;;;;5032729;28;20260;-75
2022/10/16 06:31:17;;;;;;;0.00;0.00;;;15.90;99.90;;;;;;5029655;28;20200;-75
2022/10/16 06:33:45;;;;;;;0.00;0.00;;;15.90;99.90;;;;;;5026114;28;20199;-75
2022/10/16 06:36:14;;;;;;;0.00;0.00;;;15.90;99.90;;;;;;5028474;28;20192;-75
2022/10/16 06:38:43;;;;;;;0.00;0.00;;;16.00;99.90;;;;;;5030858;28;20219;-75
2022/10/16 06:41:13;;;;;;;0.00;0.00;;;16.00;99.90;;;;;;5031262;28;20237;-74
2022/10/16 06:43:45;;;;;;;0.00;0.00;;;16.10;99.90;;;;;;5035079;28;20218;-74
2022/10/16 06:46:16;;;;;;;0.00;0.00;;;16.10;99.90;;;;;;5022132;28;20204;-74
2022/10/16 06:48:44;;;;;;;0.00;0.00;;;16.10;99.90;;;;;;5036332;28;20210;-74
2022/10/16 06:51:13;;;;;;;0.00;0.00;;;16.20;99.90;;;;;;5015779;28;20195;-74
2022/10/16 06:53:42;;;;;;;0.00;0.00;;;16.20;99.90;;;;;;5033801;28;20961;-74
2022/10/16 06:56:30;;;;;;;0.00;0.00;;;16.20;99.90;;;;;;5035779;28;20194;-75
2022/10/16 06:59:01;;;;;;;0.00;0.00;;;16.30;99.90;;;;;;5030091;28;20223;-75
2022/10/16 07:01:30;;;;;;;0.00;0.00;;;16.30;99.90;;;;;;5036983;28;20555;-75
2022/10/16 07:03:58;;;;;;;0.00;0.00;;;16.30;99.90;;;;;;5037237;28;20214;-74
2022/10/16 07:06:27;;;;;;;0.00;0.00;;;16.40;99.90;;;;;;5037815;28;20209;-74
2022/10/16 07:08:55;;;;;;;0.00;0.00;;;16.40;99.90;;;;;;5041005;28;20242;-73
2022/10/16 07:11:24;;;;;;;0.00;0.00;;;16.50;99.90;;;;;;5038436;28;20214;-73
2022/10/16 07:13:52;;;;;;;0.00;0.00;;;16.60;99.90;;;;;;5040973;28;20249;-73
2022/10/16 07:16:26;;;;;;;0.00;0.00;;;16.60;99.90;;;;;;5024782;28;20216;-75
2022/10/16 07:18:58;;;;;;;0.00;0.00;;;16.60;99.90;;;;;;5031771;28;20219;-75
2022/10/16 07:21:28;;;;;;;0.00;0.00;;;16.60;99.90;;;;;;5032899;28;20205;-75
2022/10/16 07:23:58;;;;;;;0.00;0.00;;;16.70;99.90;;;;;;5031406;28;20219;-75
2022/10/16 07:26:27;;;;;;;0.00;0.00;;;16.70;99.90;;;;;;5031879;28;21897;-75
2022/10/16 07:28:55;;;;;;;0.00;0.00;;;16.70;99.90;;;;;;5031789;28;20351;-74
2022/10/16 07:31:25;;;;;;;0.00;0.00;;;16.70;99.90;;;;;;5032459;28;20199;-75
2022/10/16 07:33:53;;;;;;;0.00;0.00;;;16.70;99.90;;;;;;5032284;28;20253;-75
2022/10/16 07:36:22;;;;;;;0.00;0.00;;;16.70;99.90;;;;;;5030709;28;20268;-74
2022/10/16 07:38:50;;;;;;;0.00;0.00;;;16.70;99.90;;;;;;5027605;28;20624;-77
2022/10/16 07:41:23;;;;;;;0.00;0.00;;;16.80;99.90;;;;;;5022363;28;20205;-77
2022/10/16 07:43:54;;;;;;;0.00;0.00;;;16.80;99.90;;;;;;5031983;28;20227;-77
2022/10/16 07:46:23;;;;;;;0.00;0.00;;;16.80;99.90;;;;;;5031256;28;20199;-76
2022/10/16 07:48:53;;;;;;;0.00;0.00;;;16.80;99.90;;;;;;5030324;28;20573;-75
2022/10/16 07:51:23;;;;;;;0.00;0.00;;;16.80;99.90;;;;;;5014586;28;20214;-75
2022/10/16 07:53:51;;;;;;;0.00;0.00;;;16.90;99.90;;;;;;5032001;28;20625;-76
2022/10/16 07:56:21;;;;;;;0.00;0.00;;;16.90;99.90;;;;;;5031353;28;20199;-75
2022/10/16 07:58:50;;;;;;;0.00;0.00;;;16.90;99.90;;;;;;5031098;28;20218;-75
2022/10/16 08:01:19;;;;;;;0.00;0.00;;;17.00;99.90;;;;;;5014932;28;20209;-75
2022/10/16 08:03:48;;;;;;;0.00;0.00;;;17.00;99.90;;;;;;5030855;28;20214;-75
2022/10/16 08:06:18;;;;;;;0.00;0.00;;;17.00;99.90;;;;;;5031347;28;20195;-75
2022/10/16 08:08:52;;;;;;;0.00;0.00;;;17.10;99.90;;;;;;5025328;28;20262;-76
2022/10/16 08:11:20;;;;;;;0.00;0.00;;;17.10;99.90;;;;;;5016470;28;20261;-75
2022/10/16 08:13:48;;;;;;;0.00;0.00;;;17.10;99.90;;;;;;5019709;28;20568;-75
2022/10/16 08:16:17;;;;;;;0.00;0.00;;;17.10;99.90;;;;;;5030687;28;20336;-75
2022/10/16 08:18:45;;;;;;;0.00;0.00;;;17.20;99.90;;;;;;5027806;28;20222;-75
2022/10/16 08:21:14;;;;;;;0.00;0.00;;;17.20;99.90;;;;;;5032175;28;20257;-75
2022/10/16 08:23:50;;;;;;;0.00;0.00;;;17.20;99.90;;;;;;5031535;28;20697;-75
2022/10/16 08:26:26;;;;;;;0.00;0.00;;;17.20;99.90;;;;;;5029538;28;20195;-75
2022/10/16 08:28:54;;;;;;;0.00;0.00;;;17.30;99.90;;;;;;5030435;28;20289;-75
2022/10/16 08:31:23;;;;;;;0.00;0.00;;;17.30;99.90;;;;;;5030296;28;20195;-75
2022/10/16 08:33:52;;;;;;;0.00;0.00;;;17.30;99.90;;;;;;5031409;28;20199;-75
2022/10/16 08:36:20;;;;;;;0.00;0.00;;;17.40;99.90;;;;;;5012764;28;20260;-75
2022/10/16 08:38:50;;;;;;;0.00;0.00;;;17.50;99.90;;;;;;5030725;28;20333;-75
2022/10/16 08:41:31;;;;;;;0.00;0.00;;;17.60;99.90;;;;;;5030664;28;20191;-75
2022/10/16 08:44:20;;;;;;;0.00;0.00;;;17.80;99.90;;;;;;5031310;28;20206;-75
2022/10/16 08:46:57;;;;;;;0.00;0.00;;;18.00;99.90;;;;;;5030487;28;20207;-75
2022/10/16 08:49:25;;;;;;;0.00;0.00;;;18.00;99.90;;;;;;5031129;28;20211;-76
2022/10/16 08:51:53;;;;;;;0.00;0.00;;;18.10;99.90;;;;;;5013730;28;20273;-75
2022/10/16 08:54:30;;;;;;;0.00;0.00;;;18.10;99.90;;;;;;5032154;28;20249;-75
2022/10/16 08:57:08;;;;;;;0.00;0.00;;;18.20;99.90;;;;;;5033129;28;20194;-77
2022/10/16 08:59:36;;;;;;;0.00;0.00;;;18.20;99.90;;;;;;5024732;28;20202;-77
2022/10/16 09:02:23;;;;;;;0.00;0.00;;;18.20;99.90;;;;;;5031148;28;20280;-77
2022/10/16 09:05:20;;;;;;;0.00;0.00;;;18.20;99.90;;;;;;5031116;28;20219;-78
2022/10/16 09:07:57;;;;;;;0.00;0.00;;;18.20;99.90;;;;;;5029390;28;20280;-77
2022/10/16 09:10:39;;;;;;;0.00;0.00;;;18.20;99.90;;;;;;5028311;28;20245;-77
2022/10/16 09:13:18;;;;;;;0.00;0.00;;;18.20;99.90;;;;;;5027019;28;20210;-76
2022/10/16 09:15:53;;;;;;;0.00;0.00;;;18.20;99.90;;;;;;5029278;28;20199;-77
2022/10/16 09:18:28;;;;;;;0.00;0.00;;;18.20;99.90;;;;;;5029406;28;20222;-77
2022/10/16 09:21:07;;;;;;;0.00;0.00;;;18.20;99.90;;;;;;5030317;28;20202;-77
2022/10/16 09:23:37;;;;;;;0.00;0.00;;;18.20;99.90;;;;;;5031734;28;20195;-77
2022/10/16 09:26:10;;;;;;;0.00;0.00;;;18.20;99.90;;;;;;5029921;28;20191;-77
2022/10/16 09:28:38;;;;;;;0.00;0.00;;;18.20;99.90;;;;;;5029398;28;20225;-77
2022/10/16 09:31:10;;;;;;;0.00;0.00;;;18.20;99.90;;;;;;5031039;28;20206;-77
2022/10/16 09:33:41;;;;;;;0.00;0.00;;;18.30;99.90;;;;;;5031576;28;20253;-77
2022/10/16 09:36:11;;;;;;;0.00;0.00;;;18.30;99.90;;;;;;5031286;28;20199;-77
2022/10/16 09:38:39;;;;;;;0.00;0.00;;;18.30;99.90;;;;;;5028249;28;20255;-77
2022/10/16 09:41:18;;;;;;;0.00;0.00;;;18.30;99.90;;;;;;5032483;28;20624;-77
2022/10/16 09:43:53;;;;;;;0.00;0.00;;;18.30;99.90;;;;;;5034505;28;20670;-77
2022/10/16 09:46:26;;;;;;;0.00;0.00;;;18.30;99.90;;;;;;5034623;28;20183;-77
2022/10/16 09:48:56;;;;;;;0.00;0.00;;;18.40;99.90;;;;;;5033364;28;20222;-75
2022/10/16 09:51:27;;;;;;;0.00;0.00;;;18.40;99.90;;;;;;5033206;28;20241;-74
2022/10/16 09:53:57;;;;;;;0.00;0.00;;;18.40;99.90;;;;;;5033904;28;20666;-77
2022/10/16 09:56:29;;;;;;;0.00;0.00;;;18.50;99.90;;;;;;5033559;28;20225;-78
2022/10/16 09:58:58;;;;;;;0.00;0.00;;;18.50;99.90;;;;;;5031528;28;20217;-77
2022/10/16 10:01:32;;;;;;;0.00;0.00;;;18.50;99.90;;;;;;5029459;28;20572;-76
2022/10/16 10:04:02;;;;;;;0.00;0.00;;;18.60;99.90;;;;;;5033840;28;20202;-75
2022/10/16 10:06:34;;;;;;;0.00;0.00;;;18.60;99.90;;;;;;5032183;28;20195;-75
2022/10/16 10:09:06;;;;;;;0.00;0.00;;;18.70;99.90;;;;;;5023651;28;20223;-76
2022/10/16 10:11:41;;;;;;;0.00;0.00;;;18.70;99.90;;;;;;5034184;28;20211;-76
2022/10/16 10:14:19;;;;;;;0.00;0.00;;;18.80;99.90;;;;;;5032829;28;20591;-75
2022/10/16 10:16:48;;;;;;;0.00;0.00;;;18.90;99.90;;;;;;5032007;28;20278;-76
2022/10/16 10:19:17;;;;;;;0.00;0.00;;;18.90;99.90;;;;;;5029069;28;20218;-76
2022/10/16 10:21:45;;;;;;;0.00;0.00;;;19.00;99.90;;;;;;5017397;28;20429;-76
2022/10/16 10:24:16;;;;;;;0.00;0.00;;;19.10;99.90;;;;;;5034091;28;20211;-75
2022/10/16 10:26:53;;;;;;;0.00;0.00;;;19.20;99.90;;;;;;5030073;28;20231;-75
2022/10/16 10:29:43;;;;;;;0.00;0.00;;;19.20;99.90;;;;;;5033312;28;20210;-76
2022/10/16 10:32:23;;;;;;;0.00;0.00;;;19.30;99.90;;;;;;5033915;28;20622;-75
2022/10/16 10:35:08;;;;;;;0.00;0.00;;;19.40;99.90;;;;;;5033583;28;20541;-76
2022/10/16 10:37:50;;;;;;;0.00;0.00;;;19.50;99.90;;;;;;5030027;28;20226;-75
2022/10/16 10:40:31;;;;;;;0.00;0.00;;;19.60;99.90;;;;;;5027179;28;20613;-75
2022/10/16 10:43:10;;;;;;;0.00;0.00;;;19.60;99.90;;;;;;5033403;28;20214;-75
2022/10/16 10:45:43;;;;;;;0.00;0.00;;;19.70;99.90;;;;;;5034287;28;20218;-77
2022/10/16 10:48:24;;;;;;;0.00;0.00;;;19.80;99.90;;;;;;5032274;28;20226;-76
2022/10/16 10:50:58;;;;;;;0.00;0.00;;;19.80;99.90;;;;;;5020579;28;20646;-76
2022/10/16 10:53:38;;;;;;;0.00;0.00;;;19.80;99.90;;;;;;5031879;28;20199;-77
2022/10/16 10:56:16;;;;;;;0.00;0.00;;;19.80;99.90;;;;;;5033376;28;20199;-77
2022/10/16 11:01:50;;;;;;;0.00;0.00;;;19.90;99.90;;;;;;5050825;28;20305;-75
2022/10/16 11:04:51;;;;;;;0.00;0.00;;;19.90;99.90;;;;;;5052998;28;20201;-75
2022/10/16 11:07:25;;;;;;;0.00;0.00;;;19.90;99.90;;;;;;5045402;28;20194;-76
2022/10/16 11:09:57;;;;;;;0.00;0.00;;;19.90;99.90;;;;;;5032749;28;20198;-76
2022/10/16 11:12:30;;;;;;;0.00;0.00;;;20.00;99.90;;;;;;5032953;28;20249;-75
2022/10/16 11:15:04;;;;;;;0.00;0.00;;;20.00;99.90;;;;;;5030988;28;20195;-76
2022/10/16 11:17:40;;;;;;;0.00;0.00;;;20.00;99.90;;;;;;5031267;28;20202;-76
2022/10/16 11:20:17;;;;;;;0.00;0.00;;;20.00;99.90;;;;;;5032617;28;20195;-75
2022/10/16 11:22:51;;;;;;;0.00;0.00;;;20.00;99.90;;;;;;5021038;28;20198;-77
2022/10/16 11:25:23;;;;;;;0.00;0.00;;;20.00;99.90;;;;;;5030788;28;20269;-75
2022/10/16 11:27:57;;;;;;;0.00;0.00;;;20.00;99.90;;;;;;5027873;28;20222;-76
2022/10/16 11:30:27;;;;;;;0.00;0.00;;;20.00;99.90;;;;;;5032136;28;20203;-76
2022/10/16 11:33:10;;;;;;;0.00;0.00;;;20.00;99.90;;;;;;5030615;28;20191;-75
2022/10/16 11:35:43;;;;;;;0.00;0.00;;;20.00;99.90;;;;;;5028311;28;20286;-76
2022/10/16 11:38:16;;;;;;;0.00;0.00;;;20.00;99.90;;;;;;5032306;28;20254;-75
2022/10/16 11:40:50;;;;;;;0.00;0.00;;;20.10;99.90;;;;;;5031919;28;20203;-77
2022/10/16 11:43:22;;;;;;;0.00;0.00;;;20.10;99.90;;;;;;5026004;28;20359;-74
2022/10/16 11:45:54;;;;;;;0.00;0.00;;;20.10;99.90;;;;;;5031221;28;20265;-76
2022/10/16 11:48:30;;;;;;;0.00;0.00;;;20.20;99.90;;;;;;5032273;28;20229;-77
2022/10/16 11:51:03;;;;;;;0.00;0.00;;;20.20;99.90;;;;;;5032863;28;20186;-76
2022/10/16 11:53:46;;;;;;;0.00;0.00;;;20.20;99.90;;;;;;5032667;28;20257;-75
2022/10/16 11:56:23;;;;;;;0.00;0.00;;;20.10;99.90;;;;;;5014205;28;20202;-75
2022/10/16 11:58:57;;;;;;;0.00;0.00;;;20.10;99.90;;;;;;5031639;28;20609;-77
2022/10/16 12:01:32;;;;;;;0.00;0.00;;;20.10;99.90;;;;;;5030802;28;20233;-75
2022/10/16 12:04:15;;;;;;;0.00;0.00;;;20.00;99.90;;;;;;5031461;28;20190;-76
2022/10/16 12:06:49;;;;;;;0.00;0.00;;;20.10;99.90;;;;;;5030302;28;20712;-76
2022/10/16 12:09:22;;;;;;;0.00;0.00;;;20.00;99.90;;;;;;5031257;28;20711;-76
2022/10/16 12:11:50;;;;;;;0.00;0.00;;;20.10;99.90;;;;;;5032669;28;20265;-76
2022/10/16 12:14:36;;;;;;;0.00;0.00;;;20.20;99.90;;;;;;5031310;28;20637;-76
2022/10/16 12:17:27;;;;;;;0.00;0.00;;;20.20;99.90;;;;;;5024483;28;20195;-75
2022/10/16 12:20:01;;;;;;;0.00;0.00;;;20.10;99.90;;;;;;5031666;28;20237;-76
2022/10/16 12:22:30;;;;;;;0.00;0.00;;;20.10;99.90;;;;;;5030918;28;20682;-75
2022/10/16 12:24:59;;;;;;;0.00;0.00;;;20.10;99.90;;;;;;5031901;28;20611;-76
2022/10/16 12:27:30;;;;;;;0.00;0.00;;;20.10;99.90;;;;;;5030461;28;20705;-76
2022/10/16 12:30:00;;;;;;;0.00;0.00;;;20.00;99.90;;;;;;5032120;28;20245;-76
2022/10/16 12:32:32;;;;;;;0.00;0.00;;;19.90;99.90;;;;;;5032751;28;20195;-75
2022/10/16 12:35:22;;;;;;;0.00;0.00;;;19.90;99.90;;;;;;5031821;28;20588;-74
2022/10/16 12:37:51;;;;;;;0.00;0.00;;;19.80;99.90;;;;;;5029248;28;20272;-76
2022/10/16 12:40:28;;;;;;;0.00;0.00;;;19.70;99.90;;;;;;5029706;28;20249;-75
2022/10/16 12:42:56;;;;;;;0.00;0.00;;;19.50;99.90;;;;;;5031256;28;20245;-76
2022/10/16 12:45:28;;;;;;;0.00;0.00;;;19.40;99.90;;;;;;5013803;28;20265;-75
2022/10/16 12:47:56;;;;;;;0.00;0.00;;;19.20;99.90;;;;;;5029952;28;20281;-75
2022/10/16 12:50:32;;;;;;;0.00;0.00;;;19.10;99.90;;;;;;5028665;28;20198;-75
2022/10/16 12:53:02;;;;;;;0.00;0.00;;;18.90;99.90;;;;;;5031310;28;20205;-75
2022/10/16 12:55:43;;;;;;;0.00;0.00;;;18.80;99.90;;;;;;5031560;28;20228;-75
2022/10/16 12:58:21;;;;;;;0.00;0.00;;;18.70;99.90;;;;;;5014773;28;20217;-76
2022/10/16 13:00:55;;;;;;;0.00;0.00;;;18.70;99.90;;;;;;5031468;28;20257;-75
2022/10/16 13:04:00;;;;;;;0.00;0.00;;;18.70;99.90;;;;;;5031607;28;20195;-75
2022/10/16 13:06:38;;;;;;;0.00;0.00;;;18.70;99.90;;;;;;5029419;28;20253;-76
2022/10/16 13:09:20;;;;;;;0.00;0.00;;;18.70;99.90;;;;;;5030071;28;20272;-74
2022/10/16 13:12:05;;;;;;;0.00;0.00;;;18.70;99.90;;;;;;5031193;28;20187;-76
2022/10/16 13:15:10;;;;;;;0.00;0.00;;;18.70;99.90;;;;;;5030709;28;20199;-76